createdAt,value
2022-07-29T00:02:18.244Z,102080.00
2022-07-29T00:04:45.127Z,102074.03
2022-07-29T00:07:12.045Z,102079.41
2022-07-29T00:09:42.960Z,102082.28
2022-07-29T00:12:25.184Z,102070.59
2022-07-29T00:14:54.585Z,102079.66
2022-07-29T00:17:21.450Z,102077.03
2022-07-29T00:19:48.375Z,102078.09
2022-07-29T00:22:15.312Z,102086.94
2022-07-29T00:24:42.344Z,102081.78
2022-07-29T00:27:09.182Z,102087.03
2022-07-29T00:29:36.083Z,102079.53
2022-07-29T00:32:03.941Z,102089.22
2022-07-29T00:34:50.749Z,102089.56
2022-07-29T00:37:17.673Z,102082.25
2022-07-29T00:39:44.743Z,102082.75
2022-07-29T00:42:11.783Z,102080.69
2022-07-29T00:44:42.292Z,102086.44
2022-07-29T00:47:10.095Z,102076.06
2022-07-29T00:49:37.673Z,102089.31
2022-07-29T00:52:05.951Z,102077.94
2022-07-29T00:54:34.183Z,102085.34
2022-07-29T00:57:01.670Z,102086.31
2022-07-29T00:59:34.764Z,102084.88
2022-07-29T01:02:03.730Z,102087.13
2022-07-29T01:04:31.378Z,102093.44
2022-07-29T01:06:58.284Z,102091.44
2022-07-29T01:09:37.321Z,102088.22
2022-07-29T01:12:17.775Z,102090.72
2022-07-29T01:14:44.805Z,102084.66
2022-07-29T01:17:31.864Z,102094.78
2022-07-29T01:20:17.525Z,102093.66
2022-07-29T01:23:21.457Z,102097.13
2022-07-29T01:26:20.287Z,102095.47
2022-07-29T01:29:13.885Z,102097.03
2022-07-29T01:32:01.140Z,102092.38
2022-07-29T01:34:46.595Z,102091.53
2022-07-29T01:37:27.717Z,102092.84
2022-07-29T01:39:56.649Z,102088.63
2022-07-29T01:42:23.513Z,102086.69
2022-07-29T01:45:22.401Z,102090.59
2022-07-29T01:48:02.972Z,102089.81
2022-07-29T01:50:36.080Z,102082.06
2022-07-29T01:53:07.407Z,102088.97
2022-07-29T01:55:38.049Z,102085.38
2022-07-29T01:58:06.446Z,102078.56
2022-07-29T02:00:33.570Z,102081.78
2022-07-29T02:03:01.846Z,102080.25
2022-07-29T02:05:28.898Z,102074.63
2022-07-29T02:07:56.067Z,102084.66
2022-07-29T02:10:25.980Z,102082.25
2022-07-29T02:12:52.987Z,102084.66
2022-07-29T02:15:19.918Z,102082.72
2022-07-29T02:17:56.250Z,102077.31
2022-07-29T02:20:23.853Z,102091.63
2022-07-29T02:22:50.763Z,102085.09
2022-07-29T02:25:17.769Z,102085.72
2022-07-29T02:27:44.541Z,102081.06
2022-07-29T02:30:12.580Z,102084.31
2022-07-29T02:32:40.349Z,102088.81
2022-07-29T02:35:08.263Z,102085.94
2022-07-29T02:37:35.169Z,102076.63
2022-07-29T02:40:02.049Z,102086.91
2022-07-29T02:42:28.935Z,102085.91
2022-07-29T02:44:56.484Z,102085.31
2022-07-29T02:47:25.147Z,102091.72
2022-07-29T02:50:07.943Z,102085.88
2022-07-29T02:52:51.008Z,102090.88
2022-07-29T02:55:31.885Z,102091.25
2022-07-29T02:58:09.087Z,102091.41
2022-07-29T03:00:37.967Z,102093.47
2022-07-29T03:03:05.750Z,102087.34
2022-07-29T03:05:32.629Z,102069.38
2022-07-29T03:08:02.145Z,102084.44
2022-07-29T03:10:29.060Z,102084.66
2022-07-29T03:12:56.695Z,102087.50
2022-07-29T03:15:24.750Z,102091.09
2022-07-29T03:17:52.308Z,102082.75
2022-07-29T03:20:19.424Z,102081.34
2022-07-29T03:22:49.399Z,102078.44
2022-07-29T03:25:17.864Z,102083.00
2022-07-29T03:27:44.902Z,102067.47
2022-07-29T03:30:12.577Z,102080.59
2022-07-29T03:32:45.028Z,102078.56
2022-07-29T03:35:12.104Z,102088.69
2022-07-29T03:37:39.037Z,102083.06
2022-07-29T03:40:08.618Z,102089.56
2022-07-29T03:42:38.041Z,102095.84
2022-07-29T03:45:07.806Z,102094.28
2022-07-29T03:47:50.148Z,102088.69
2022-07-29T03:50:19.264Z,102095.78
2022-07-29T03:52:46.751Z,102101.88
2022-07-29T03:55:13.728Z,102084.94
2022-07-29T03:57:41.251Z,102089.19
2022-07-29T04:00:09.226Z,102084.34
2022-07-29T04:02:36.561Z,102091.28
2022-07-29T04:05:03.666Z,102090.63
2022-07-29T04:07:30.861Z,102085.75
2022-07-29T04:09:57.764Z,102085.94
2022-07-29T04:12:24.952Z,102090.13
2022-07-29T04:14:51.997Z,102092.94
2022-07-29T04:17:18.842Z,102096.06
2022-07-29T04:19:46.189Z,102096.03
2022-07-29T04:22:13.181Z,102093.22
2022-07-29T04:24:44.053Z,102094.38
2022-07-29T04:27:11.274Z,102092.34
2022-07-29T04:29:38.091Z,102084.66
2022-07-29T04:32:24.203Z,102062.94
2022-07-29T04:34:51.294Z,102084.22
2022-07-29T04:37:18.282Z,102076.81
2022-07-29T04:39:45.099Z,102079.88
2022-07-29T04:42:12.122Z,102073.81
2022-07-29T04:44:42.966Z,102076.31
2022-07-29T04:47:10.458Z,102077.34
2022-07-29T04:49:40.644Z,102079.72
2022-07-29T04:52:08.022Z,102082.78
2022-07-29T04:54:34.903Z,102080.75
2022-07-29T04:57:01.822Z,102075.06
2022-07-29T04:59:28.803Z,102084.13
2022-07-29T05:01:55.826Z,102086.88
2022-07-29T05:04:22.813Z,102069.78
2022-07-29T05:06:49.867Z,102085.28
2022-07-29T05:09:16.787Z,102078.47
2022-07-29T05:11:43.644Z,102085.44
2022-07-29T05:14:10.528Z,102092.06
2022-07-29T05:16:37.352Z,102089.56
2022-07-29T05:21:31.004Z,102093.97
2022-07-29T05:23:57.906Z,102091.19
2022-07-29T05:26:24.764Z,102083.75
2022-07-29T05:28:51.774Z,102091.53
2022-07-29T05:31:18.733Z,102091.22
2022-07-29T05:33:45.778Z,102083.53
2022-07-29T05:36:12.777Z,102087.00
2022-07-29T05:38:39.744Z,102083.75
2022-07-29T05:41:06.741Z,102081.66
2022-07-29T05:43:33.854Z,102084.91
2022-07-29T05:46:00.992Z,102081.13
2022-07-29T05:48:28.321Z,102083.28
2022-07-29T05:50:55.836Z,102074.31
2022-07-29T05:53:22.969Z,102074.56
2022-07-29T05:55:50.108Z,102078.28
2022-07-29T05:58:17.005Z,102080.38
2022-07-29T06:00:43.915Z,102073.34
2022-07-29T06:03:10.841Z,102077.47
2022-07-29T06:05:37.786Z,102071.47
2022-07-29T06:08:06.976Z,102071.69
2022-07-29T06:10:35.409Z,102069.19
2022-07-29T06:13:02.505Z,102063.47
2022-07-29T06:15:29.567Z,102073.03
2022-07-29T06:17:59.378Z,102079.41
2022-07-29T06:20:31.119Z,102080.66
2022-07-29T06:22:58.609Z,102089.09
2022-07-29T06:25:25.903Z,102088.41
2022-07-29T06:27:59.172Z,102080.16
2022-07-29T06:30:26.356Z,102086.97
2022-07-29T06:32:53.626Z,102073.97
2022-07-29T06:35:38.989Z,102087.53
2022-07-29T06:38:29.864Z,102096.78
2022-07-29T06:41:11.173Z,102092.75
2022-07-29T06:43:45.601Z,102090.00
2022-07-29T06:46:19.107Z,102085.16
2022-07-29T06:48:46.554Z,102089.84
2022-07-29T06:51:13.705Z,102083.28
2022-07-29T06:53:40.749Z,102084.75
2022-07-29T06:56:27.086Z,102079.44
2022-07-29T06:58:53.961Z,102069.41
2022-07-29T07:01:21.171Z,102082.28
2022-07-29T07:03:48.827Z,102080.53
2022-07-29T07:06:15.933Z,102086.78
2022-07-29T07:08:43.686Z,102075.97
2022-07-29T07:11:10.802Z,102079.16
2022-07-29T07:13:37.725Z,102076.47
2022-07-29T07:16:05.007Z,102086.47
2022-07-29T07:18:32.281Z,102080.84
2022-07-29T07:20:59.324Z,102076.56
2022-07-29T07:23:26.224Z,102078.41
2022-07-29T07:25:53.440Z,102084.69
2022-07-29T07:28:24.716Z,102085.94
2022-07-29T07:30:54.177Z,102086.19
2022-07-29T07:33:21.115Z,102077.47
2022-07-29T07:35:48.292Z,102086.13
2022-07-29T07:38:15.223Z,102082.41
2022-07-29T07:40:42.147Z,102079.31
2022-07-29T07:43:09.208Z,102078.00
2022-07-29T07:45:38.543Z,102070.91
2022-07-29T07:48:06.207Z,102071.16
2022-07-29T07:50:33.329Z,102070.00
2022-07-29T07:53:03.301Z,102075.38
2022-07-29T07:55:47.286Z,102079.50
2022-07-29T07:58:17.374Z,102083.72
2022-07-29T08:00:44.580Z,102080.03
2022-07-29T08:03:16.788Z,102076.88
2022-07-29T08:05:44.464Z,102079.09
2022-07-29T08:08:11.393Z,102075.78
2022-07-29T08:10:57.001Z,102085.13
2022-07-29T08:13:26.468Z,102084.19
2022-07-29T08:16:01.255Z,102090.25
2022-07-29T08:18:29.956Z,102093.38
2022-07-29T08:20:57.347Z,102075.47
2022-07-29T08:23:25.417Z,102075.00
2022-07-29T08:25:52.421Z,102076.66
2022-07-29T08:28:25.768Z,102085.81
2022-07-29T08:30:52.952Z,102086.66
2022-07-29T08:33:19.904Z,102095.13
2022-07-29T08:35:46.881Z,102096.25
2022-07-29T08:38:13.985Z,102093.25
2022-07-29T08:40:41.085Z,102084.91
2022-07-29T08:43:08.643Z,102082.72
2022-07-29T08:45:42.307Z,102088.94
2022-07-29T08:48:14.800Z,102089.91
2022-07-29T08:50:42.569Z,102089.97
2022-07-29T08:53:14.968Z,102087.25
2022-07-29T08:55:43.645Z,102075.56
2022-07-29T08:58:10.833Z,102079.19
2022-07-29T09:00:38.966Z,102079.69
2022-07-29T09:03:07.823Z,102087.78
2022-07-29T09:05:39.500Z,102083.28
2022-07-29T09:08:08.063Z,102082.22
2022-07-29T09:10:36.790Z,102084.69
2022-07-29T09:13:04.041Z,102082.72
2022-07-29T09:15:31.163Z,102082.66
2022-07-29T09:17:59.434Z,102082.88
2022-07-29T09:20:26.584Z,102075.56
2022-07-29T09:22:54.726Z,102075.56
2022-07-29T09:25:41.194Z,102079.22
2022-07-29T09:28:09.084Z,102056.63
2022-07-29T09:30:36.190Z,102067.13
2022-07-29T09:33:04.014Z,102072.28
2022-07-29T09:35:31.263Z,102072.38
2022-07-29T09:37:58.345Z,102074.91
2022-07-29T09:40:27.051Z,102080.91
2022-07-29T09:42:56.629Z,102076.56
2022-07-29T09:45:30.921Z,102070.72
2022-07-29T09:48:01.382Z,102064.91
2022-07-29T09:50:41.210Z,102069.03
2022-07-29T09:53:10.605Z,102068.38
2022-07-29T09:55:56.200Z,102066.47
2022-07-29T09:58:23.857Z,102053.38
2022-07-29T10:00:51.654Z,102068.44
2022-07-29T10:03:18.983Z,102064.50
2022-07-29T10:05:46.486Z,102070.09
2022-07-29T10:08:13.826Z,102066.69
2022-07-29T10:10:45.662Z,102054.53
2022-07-29T10:13:16.206Z,102049.47
2022-07-29T10:15:45.272Z,102058.34
2022-07-29T10:18:13.022Z,102045.97
2022-07-29T10:20:40.028Z,102054.28
2022-07-29T10:23:06.911Z,102051.56
2022-07-29T10:25:33.942Z,102058.91
2022-07-29T10:28:00.780Z,102045.00
2022-07-29T10:30:27.808Z,102042.94
2022-07-29T10:33:25.296Z,102057.31
2022-07-29T10:36:18.544Z,102042.22
2022-07-29T10:39:07.338Z,102037.03
2022-07-29T10:41:57.790Z,102046.66
2022-07-29T10:44:26.093Z,102036.41
2022-07-29T10:46:53.261Z,102039.00
2022-07-29T10:49:25.109Z,102041.06
2022-07-29T10:52:00.770Z,102045.03
2022-07-29T10:54:44.175Z,102049.69
2022-07-29T10:57:53.839Z,102049.31
2022-07-29T11:00:27.065Z,102049.22
2022-07-29T11:02:56.577Z,102035.00
2022-07-29T11:05:24.903Z,102030.00
2022-07-29T11:08:20.237Z,102044.19
2022-07-29T11:11:06.650Z,102046.78
2022-07-29T11:13:53.149Z,102046.91
2022-07-29T11:16:25.103Z,102034.53
2022-07-29T11:19:14.633Z,102044.63
2022-07-29T11:21:55.321Z,102036.94
2022-07-29T11:24:35.933Z,102032.34
2022-07-29T11:27:13.506Z,102019.75
2022-07-29T11:29:52.185Z,102025.72
2022-07-29T11:32:24.169Z,102021.47
2022-07-29T11:38:23.341Z,102032.25
2022-07-29T11:41:25.463Z,102025.59
2022-07-29T11:43:54.865Z,102030.56
2022-07-29T11:46:47.562Z,102028.47
2022-07-29T11:49:15.486Z,102026.84
2022-07-29T11:51:48.173Z,102037.63
2022-07-29T11:54:16.101Z,102033.22
2022-07-29T11:56:44.903Z,102023.06
2022-07-29T11:59:11.882Z,102029.06
2022-07-29T12:02:02.418Z,102036.19
2022-07-29T12:05:01.121Z,102027.41
2022-07-29T12:07:03.897Z,102015.56
2022-07-29T12:07:38.127Z,102033.50
2022-07-29T12:10:06.307Z,102028.31
2022-07-29T12:12:34.301Z,102027.28
2022-07-29T12:15:15.973Z,102025.53
2022-07-29T12:17:42.964Z,102026.03
2022-07-29T12:20:09.964Z,102019.66
2022-07-29T12:22:42.083Z,102018.38
2022-07-29T12:28:04.721Z,102016.84
2022-07-29T12:30:49.124Z,102021.69
2022-07-29T12:33:24.883Z,102022.75
2022-07-29T12:36:06.098Z,102025.59
2022-07-29T12:38:35.835Z,102024.66
2022-07-29T12:41:04.542Z,102026.97
2022-07-29T12:43:31.644Z,102029.06
2022-07-29T12:45:58.561Z,102021.63
2022-07-29T12:48:44.123Z,102013.69
2022-07-29T12:51:12.815Z,102017.72
2022-07-29T12:53:39.895Z,102035.03
2022-07-29T12:56:26.468Z,102032.69
2022-07-29T12:58:53.925Z,102027.81
2022-07-29T13:01:22.038Z,102025.31
2022-07-29T13:04:05.138Z,102018.16
2022-07-29T13:06:41.089Z,102025.34
2022-07-29T13:09:18.933Z,102027.22
2022-07-29T13:11:50.748Z,102022.31
2022-07-29T13:14:36.845Z,102027.94
2022-07-29T13:17:08.685Z,102025.69
2022-07-29T13:19:52.044Z,102033.16
2022-07-29T13:22:23.560Z,102024.25
2022-07-29T13:25:07.523Z,102028.84
2022-07-29T13:27:35.091Z,102026.88
2022-07-29T13:30:03.065Z,102035.00
2022-07-29T13:32:30.664Z,102029.31
2022-07-29T13:34:58.280Z,102011.19
2022-07-29T13:37:25.287Z,102028.03
2022-07-29T13:39:53.544Z,102019.47
2022-07-29T13:42:20.690Z,102021.34
2022-07-29T13:44:49.716Z,102027.22
2022-07-29T13:47:17.255Z,102026.34
2022-07-29T13:49:44.202Z,102028.09
2022-07-29T13:52:11.150Z,102024.03
2022-07-29T13:54:42.403Z,102033.25
2022-07-29T13:57:11.944Z,102038.78
2022-07-29T13:59:40.221Z,102039.09
2022-07-29T14:02:07.389Z,102030.66
2022-07-29T14:04:34.650Z,102020.41
2022-07-29T14:07:03.807Z,102031.84
2022-07-29T14:09:41.079Z,102023.25
2022-07-29T14:12:09.293Z,102025.91
2022-07-29T14:14:37.634Z,102016.41
2022-07-29T14:17:07.901Z,102022.09
2022-07-29T14:19:39.311Z,102015.28
2022-07-29T14:22:07.167Z,102003.66
2022-07-29T14:24:37.107Z,102004.47
2022-07-29T14:27:05.293Z,101997.06
2022-07-29T14:29:36.878Z,102003.63
2022-07-29T14:32:08.724Z,101993.28
2022-07-29T14:34:36.768Z,101997.28
2022-07-29T14:37:06.329Z,102001.44
2022-07-29T14:39:33.592Z,101982.97
2022-07-29T14:42:01.102Z,101993.75
2022-07-29T14:44:32.338Z,101989.88
2022-07-29T14:47:07.710Z,101989.59
2022-07-29T14:49:35.659Z,101990.53
2022-07-29T14:52:02.622Z,101987.09
2022-07-29T14:54:29.471Z,101996.13
2022-07-29T14:56:58.607Z,101985.31
2022-07-29T14:59:26.379Z,101992.88
2022-07-29T15:01:53.412Z,101988.41
2022-07-29T15:04:20.343Z,101982.03
2022-07-29T15:06:47.390Z,101988.50
2022-07-29T15:09:14.247Z,101984.03
2022-07-29T15:11:41.104Z,101985.91
2022-07-29T15:14:08.065Z,101982.84
2022-07-29T15:16:37.329Z,101983.69
2022-07-29T15:19:05.167Z,101979.28
2022-07-29T15:21:32.222Z,101979.91
2022-07-29T15:23:59.107Z,101988.66
2022-07-29T15:26:25.962Z,101987.59
2022-07-29T15:28:52.824Z,101986.84
2022-07-29T15:31:22.403Z,101989.66
2022-07-29T15:33:49.244Z,101984.34
2022-07-29T15:36:42.130Z,101978.59
2022-07-29T15:39:02.984Z,101971.78
2022-07-29T15:41:29.873Z,101980.41
2022-07-29T15:43:56.883Z,101958.97
2022-07-29T15:46:42.124Z,101972.44
2022-07-29T15:49:09.452Z,101973.84
2022-07-29T15:51:36.404Z,101968.06
2022-07-29T15:54:04.090Z,101962.53
2022-07-29T15:56:31.687Z,101968.09
2022-07-29T15:58:58.751Z,101955.63
2022-07-29T16:01:25.688Z,101962.69
2022-07-29T16:03:52.981Z,101953.72
2022-07-29T16:06:20.004Z,101950.53
2022-07-29T16:08:46.849Z,101941.97
2022-07-29T16:11:13.725Z,101953.06
2022-07-29T16:13:40.629Z,101947.69
2022-07-29T16:16:07.595Z,101957.34
2022-07-29T16:18:34.918Z,101954.56
2022-07-29T16:21:01.883Z,101954.66
2022-07-29T16:23:28.904Z,101952.44
2022-07-29T16:26:00.628Z,101944.31
2022-07-29T16:28:31.268Z,101954.88
2022-07-29T16:30:58.332Z,101956.50
2022-07-29T16:33:25.208Z,101958.44
2022-07-29T16:35:52.574Z,101950.44
2022-07-29T16:38:19.508Z,101953.75
2022-07-29T16:40:46.595Z,101955.50
2022-07-29T16:43:13.810Z,101958.38
2022-07-29T16:45:45.518Z,101953.75
2022-07-29T16:48:17.310Z,101951.81
2022-07-29T16:50:45.329Z,101954.94
2022-07-29T16:53:12.352Z,101934.13
2022-07-29T16:55:42.024Z,101947.91
2022-07-29T16:58:10.213Z,101942.16
2022-07-29T17:00:37.205Z,101946.53
2022-07-29T17:03:05.498Z,101942.59
2022-07-29T17:05:52.751Z,101944.31
2022-07-29T17:08:20.226Z,101945.66
2022-07-29T17:10:47.427Z,101945.66
2022-07-29T17:13:14.727Z,101943.06
2022-07-29T17:15:43.205Z,101942.41
2022-07-29T17:18:12.478Z,101929.78
2022-07-29T17:20:41.689Z,101934.91
2022-07-29T17:23:08.545Z,101934.44
2022-07-29T17:25:35.606Z,101928.81
2022-07-29T17:28:02.512Z,101943.34
2022-07-29T17:30:30.056Z,101943.34
2022-07-29T17:32:56.978Z,101935.56
2022-07-29T17:35:42.306Z,101948.13
2022-07-29T17:38:09.276Z,101949.84
2022-07-29T17:40:36.189Z,101949.91
2022-07-29T17:43:04.792Z,101946.06
2022-07-29T17:45:49.627Z,101947.53
2022-07-29T17:48:18.222Z,101960.38
2022-07-29T17:50:45.705Z,101950.78
2022-07-29T17:53:16.258Z,101949.16
2022-07-29T17:55:48.705Z,101946.06
2022-07-29T17:58:15.946Z,101940.97
2022-07-29T18:00:43.019Z,101944.81
2022-07-29T18:03:10.076Z,101952.91
2022-07-29T18:05:37.132Z,101943.47
2022-07-29T18:08:04.152Z,101945.78
2022-07-29T18:10:31.446Z,101945.63
2022-07-29T18:12:58.398Z,101942.00
2022-07-29T18:15:25.387Z,101947.78
2022-07-29T18:17:57.506Z,101944.94
2022-07-29T18:20:25.977Z,101936.31
2022-07-29T18:22:53.054Z,101942.94
2022-07-29T18:25:20.068Z,101943.88
2022-07-29T18:27:46.987Z,101947.34
2022-07-29T18:30:15.390Z,101945.56
2022-07-29T18:32:54.323Z,101940.88
2022-07-29T18:35:29.446Z,101947.00
2022-07-29T18:38:01.134Z,101941.84
2022-07-29T18:40:29.787Z,101932.19
2022-07-29T18:42:56.724Z,101938.16
2022-07-29T18:45:28.661Z,101943.91
2022-07-29T18:47:56.729Z,101936.25
2022-07-29T18:50:28.795Z,101947.97
2022-07-29T18:52:58.882Z,101943.28
2022-07-29T18:55:26.318Z,101947.31
2022-07-29T18:57:56.592Z,101938.00
2022-07-29T19:00:24.665Z,101947.38
2022-07-29T19:02:52.733Z,101954.25
2022-07-29T19:05:19.946Z,101953.91
2022-07-29T19:07:47.060Z,101948.53
2022-07-29T19:10:14.007Z,101950.66
2022-07-29T19:12:41.046Z,101946.50
2022-07-29T19:15:10.399Z,101949.91
2022-07-29T19:17:38.008Z,101953.63
2022-07-29T19:20:06.102Z,101954.78
2022-07-29T19:22:34.478Z,101935.63
2022-07-29T19:25:01.382Z,101951.16
2022-07-29T19:27:28.289Z,101949.16
2022-07-29T19:29:58.962Z,101942.25
2022-07-29T19:32:26.534Z,101937.44
2022-07-29T19:35:22.487Z,101943.16
2022-07-29T19:37:49.412Z,101951.09
2022-07-29T19:40:16.425Z,101948.75
2022-07-29T19:42:43.764Z,101953.56
2022-07-29T19:45:11.479Z,101940.13
2022-07-29T19:47:38.345Z,101949.56
2022-07-29T19:50:05.666Z,101942.28
2022-07-29T19:52:33.130Z,101945.59
2022-07-29T19:55:05.307Z,101938.78
2022-07-29T19:57:40.872Z,101948.59
2022-07-29T20:00:11.071Z,101948.91
2022-07-29T20:02:39.367Z,101948.38
2022-07-29T20:05:07.119Z,101950.09
2022-07-29T20:07:34.310Z,101937.75
2022-07-29T20:10:01.194Z,101947.66
2022-07-29T20:12:28.085Z,101948.78
2022-07-29T20:14:55.015Z,101955.97
2022-07-29T20:17:24.737Z,101953.47
2022-07-29T20:19:51.990Z,101944.63
2022-07-29T20:22:21.095Z,101946.84
2022-07-29T20:24:48.579Z,101953.34
2022-07-29T20:27:15.463Z,101957.72
2022-07-29T20:29:42.505Z,101952.16
2022-07-29T20:32:09.385Z,101951.19
2022-07-29T20:34:36.289Z,101948.75
2022-07-29T20:37:03.684Z,101944.34
2022-07-29T20:39:30.689Z,101945.56
2022-07-29T20:41:57.610Z,101940.72
2022-07-29T20:44:24.706Z,101948.09
2022-07-29T20:46:51.617Z,101950.19
2022-07-29T20:49:18.616Z,101948.84
2022-07-29T20:51:45.661Z,101952.19
2022-07-29T20:54:12.772Z,101945.97
2022-07-29T20:56:40.005Z,101947.22
2022-07-29T20:59:07.265Z,101954.59
2022-07-29T21:01:34.310Z,101954.16
2022-07-29T21:04:01.883Z,101963.41
2022-07-29T21:06:29.348Z,101961.63
2022-07-29T21:08:58.109Z,101948.56
2022-07-29T21:11:43.364Z,101959.22
2022-07-29T21:14:30.586Z,101962.00
2022-07-29T21:16:57.791Z,101964.91
2022-07-29T21:19:24.819Z,101961.84
2022-07-29T21:21:52.067Z,101961.47
2022-07-29T21:24:19.157Z,101962.56
2022-07-29T21:26:54.422Z,101964.34
2022-07-29T21:29:26.913Z,101961.84
2022-07-29T21:31:53.806Z,101958.25
2022-07-29T21:34:20.663Z,101954.63
2022-07-29T21:36:48.760Z,101953.22
2022-07-29T21:39:15.835Z,101952.25
2022-07-29T21:41:42.687Z,101950.28
2022-07-29T21:44:09.573Z,101957.91
2022-07-29T21:46:36.865Z,101952.47
2022-07-29T21:49:03.969Z,101954.66
2022-07-29T21:51:30.947Z,101956.84
2022-07-29T21:53:57.880Z,101952.25
2022-07-29T21:56:27.567Z,101957.66
2022-07-29T21:58:55.043Z,101960.16
2022-07-29T22:01:21.946Z,101956.13
2022-07-29T22:03:48.786Z,101959.16
2022-07-29T22:06:17.853Z,101957.31
2022-07-29T22:08:45.921Z,101952.19
2022-07-29T22:11:13.399Z,101961.34
2022-07-29T22:13:40.353Z,101954.94
2022-07-29T22:16:07.744Z,101959.50
2022-07-29T22:18:34.667Z,101949.94
2022-07-29T22:21:01.588Z,101952.25
2022-07-29T22:23:28.587Z,101955.41
2022-07-29T22:25:55.723Z,101948.75
2022-07-29T22:28:22.666Z,101950.75
2022-07-29T22:30:49.615Z,101937.31
2022-07-29T22:33:17.309Z,101949.44
2022-07-29T22:35:48.626Z,101944.75
2022-07-29T22:38:17.333Z,101945.56
2022-07-29T22:40:44.209Z,101929.69
2022-07-29T22:43:11.102Z,101926.06
2022-07-29T22:45:38.053Z,101924.28
2022-07-29T22:48:05.826Z,101919.16
2022-07-29T22:50:32.923Z,101911.25
2022-07-29T22:52:59.805Z,101907.09
2022-07-29T22:55:26.674Z,101913.91
2022-07-29T22:57:53.488Z,101911.69
2022-07-29T23:00:20.562Z,101905.19
2022-07-29T23:02:47.764Z,101908.28
2022-07-29T23:05:16.069Z,101907.31
2022-07-29T23:07:43.107Z,101908.03
2022-07-29T23:10:10.273Z,101896.22
2022-07-29T23:12:37.165Z,101903.59
2022-07-29T23:15:07.889Z,101904.81
2022-07-29T23:17:36.543Z,101900.19
2022-07-29T23:20:06.846Z,101908.38
2022-07-29T23:22:34.103Z,101902.41
2022-07-29T23:25:01.012Z,101906.84
2022-07-29T23:27:27.902Z,101906.13
2022-07-29T23:29:54.953Z,101905.53
2022-07-29T23:32:21.865Z,101902.22
2022-07-29T23:34:48.870Z,101900.69
2022-07-29T23:37:15.726Z,101899.50
2022-07-29T23:39:42.553Z,101896.06
2022-07-29T23:42:09.771Z,101903.38
2022-07-29T23:44:36.603Z,101900.84
2022-07-29T23:47:03.968Z,101897.91
2022-07-29T23:49:31.109Z,101898.47
2022-07-29T23:51:57.962Z,101894.91
2022-07-29T23:54:24.846Z,101896.13
2022-07-29T23:56:51.744Z,101901.19
2022-07-29T23:59:18.581Z,101905.03
